Time;durP1;ratioP1;P1;durP2;ratioP2;P2;SDS_P1;SDS_P2;PMS_P1;PMS_P2;Temp;Humidity;BMP_temperature;BMP_pressure;BME280_temperature;BME280_humidity;BME280_pressure;Samples;Min_cycle;Max_cycle;Signal;HPM_P1;HPM_P2
2023/12/31 00:00:08;;;;;;;9.43;3.73;;;6.00;99.90;;;;;;4974409;28;20035;-76
2023/12/31 00:02:34;;;;;;;5.73;2.97;;;6.00;99.90;;;;;;4958684;28;20384;-75
2023/12/31 00:04:59;;;;;;;6.82;3.47;;;6.00;99.90;;;;;;4958385;28;20030;-77
2023/12/31 00:07:26;;;;;;;6.47;3.30;;;6.00;99.90;;;;;;4976247;28;20031;-75
2023/12/31 00:09:52;;;;;;;6.72;3.17;;;6.00;99.90;;;;;;4958628;28;20428;-75
2023/12/31 00:12:18;;;;;;;4.32;2.80;;;6.00;99.90;;;;;;4974404;28;20031;-75
2023/12/31 00:14:43;;;;;;;5.93;3.57;;;6.00;99.90;;;;;;4975872;28;20065;-76
2023/12/31 00:17:09;;;;;;;7.67;3.47;;;5.90;99.90;;;;;;4958086;28;20466;-75
2023/12/31 00:19:35;;;;;;;9.03;3.77;;;5.90;99.90;;;;;;4975894;28;20041;-76
2023/12/31 00:22:00;;;;;;;11.50;4.43;;;5.90;99.90;;;;;;4957807;28;20034;-77
2023/12/31 00:24:26;;;;;;;10.90;4.93;;;5.80;99.90;;;;;;4975685;28;20027;-74
2023/12/31 00:26:51;;;;;;;11.13;4.13;;;5.80;99.90;;;;;;4958441;28;20035;-76
2023/12/31 00:29:17;;;;;;;7.43;3.60;;;5.90;99.90;;;;;;4973898;28;20046;-76
2023/12/31 00:31:42;;;;;;;12.93;4.03;;;5.90;99.90;;;;;;4975621;28;20027;-75
2023/12/31 00:34:10;;;;;;;11.60;4.57;;;5.90;99.90;;;;;;4975291;28;20030;-75
2023/12/31 00:36:35;;;;;;;10.13;3.90;;;5.90;99.90;;;;;;4975341;28;20051;-75
2023/12/31 00:39:01;;;;;;;7.78;3.33;;;5.90;99.90;;;;;;4974934;28;20031;-77
2023/12/31 00:41:27;;;;;;;8.07;3.10;;;5.80;99.90;;;;;;4975577;28;20546;-75
2023/12/31 00:43:52;;;;;;;8.68;3.05;;;5.80;99.90;;;;;;4958048;28;20042;-75
2023/12/31 00:46:18;;;;;;;8.53;3.23;;;5.80;99.90;;;;;;4957547;28;20054;-75
2023/12/31 00:48:43;;;;;;;6.90;3.10;;;5.90;99.90;;;;;;4975277;28;20066;-76
2023/12/31 00:51:09;;;;;;;7.38;3.50;;;5.90;99.90;;;;;;4974748;28;20479;-76
2023/12/31 00:53:35;;;;;;;7.03;3.60;;;5.80;99.90;;;;;;4973930;28;20416;-76
2023/12/31 00:56:01;;;;;;;6.27;3.00;;;5.90;99.90;;;;;;4975140;28;20022;-75
2023/12/31 00:58:27;;;;;;;4.10;2.47;;;5.80;99.90;;;;;;4975187;28;20042;-75
2023/12/31 01:00:52;;;;;;;6.80;3.00;;;5.80;99.90;;;;;;4957684;28;20074;-75
2023/12/31 01:03:18;;;;;;;4.33;2.57;;;5.70;99.90;;;;;;4974448;28;20090;-76
2023/12/31 01:05:44;;;;;;;5.10;2.60;;;5.60;99.90;;;;;;4974904;28;20536;-75
2023/12/31 01:08:10;;;;;;;4.43;2.77;;;5.60;99.90;;;;;;4973306;28;20133;-76
2023/12/31 01:10:35;;;;;;;4.90;2.80;;;5.60;99.90;;;;;;4973708;28;20101;-75
2023/12/31 01:13:02;;;;;;;6.03;2.70;;;5.60;99.90;;;;;;4974818;28;20035;-76
2023/12/31 01:15:28;;;;;;;4.60;2.40;;;5.50;99.90;;;;;;4957551;28;20034;-76
2023/12/31 01:17:53;;;;;;;5.20;3.00;;;5.60;99.90;;;;;;4957390;28;20038;-76
2023/12/31 01:20:19;;;;;;;8.27;3.67;;;5.60;99.90;;;;;;4957122;28;20496;-76
2023/12/31 01:22:44;;;;;;;5.60;2.80;;;5.60;99.90;;;;;;4957361;28;20081;-76
2023/12/31 01:25:10;;;;;;;5.20;2.80;;;5.60;99.90;;;;;;4956865;28;20475;-76
2023/12/31 01:27:36;;;;;;;3.90;2.50;;;5.50;99.90;;;;;;4974269;28;20034;-75
2023/12/31 01:30:02;;;;;;;5.20;2.53;;;5.50;99.90;;;;;;4974491;28;20567;-76
2023/12/31 01:32:27;;;;;;;5.43;2.53;;;5.50;99.90;;;;;;4956783;28;20030;-75
2023/12/31 01:34:57;;;;;;;4.23;2.47;;;5.60;99.90;;;;;;4956328;28;20376;-75
2023/12/31 01:37:22;;;;;;;5.43;2.40;;;5.60;99.90;;;;;;4974038;28;20085;-76
2023/12/31 01:39:48;;;;;;;4.63;2.50;;;5.60;99.90;;;;;;4974211;28;20039;-76
2023/12/31 01:42:13;;;;;;;4.90;2.40;;;5.60;99.90;;;;;;4973942;28;20058;-75
2023/12/31 01:44:39;;;;;;;3.97;2.40;;;5.60;99.90;;;;;;4957062;28;20026;-75
2023/12/31 01:47:05;;;;;;;4.20;2.20;;;5.60;99.90;;;;;;4972636;28;20511;-88
2023/12/31 01:49:32;;;;;;;4.33;2.30;;;5.60;99.90;;;;;;4973989;28;20550;-75
2023/12/31 01:51:58;;;;;;;3.80;2.07;;;5.70;99.90;;;;;;4956889;28;20026;-75
2023/12/31 01:54:24;;;;;;;5.40;2.37;;;5.70;99.90;;;;;;4974059;28;20062;-75
2023/12/31 01:56:51;;;;;;;4.63;2.20;;;5.80;99.90;;;;;;4956879;28;20031;-75
2023/12/31 01:59:17;;;;;;;5.10;2.50;;;5.80;99.90;;;;;;4956373;28;20035;-76
2023/12/31 02:01:45;;;;;;;3.33;2.30;;;5.80;99.90;;;;;;4974471;28;20073;-75
2023/12/31 02:04:11;;;;;;;4.83;2.00;;;5.80;99.90;;;;;;4956296;28;20066;-75
2023/12/31 02:06:38;;;;;;;3.93;2.20;;;5.70;99.90;;;;;;4972754;28;20069;-75
2023/12/31 02:09:06;;;;;;;5.07;2.67;;;5.70;99.90;;;;;;4974013;28;20039;-75
2023/12/31 02:11:32;;;;;;;10.57;3.63;;;5.70;99.90;;;;;;4956957;28;20027;-75
2023/12/31 02:13:58;;;;;;;12.17;4.73;;;5.70;99.90;;;;;;4956835;28;20377;-75
2023/12/31 02:16:25;;;;;;;12.23;3.65;;;5.80;99.90;;;;;;4956346;28;20026;-76
2023/12/31 02:18:50;;;;;;;10.83;3.97;;;5.90;99.90;;;;;;4972761;28;20046;-76
2023/12/31 02:21:16;;;;;;;9.50;3.33;;;5.90;99.90;;;;;;4956378;28;20027;-75
2023/12/31 02:23:43;;;;;;;14.13;4.93;;;5.90;99.90;;;;;;4973740;28;20027;-76
2023/12/31 02:26:10;;;;;;;10.80;3.20;;;5.90;99.90;;;;;;4956345;28;20022;-76
2023/12/31 02:28:36;;;;;;;7.38;2.85;;;5.80;99.90;;;;;;4956478;28;20465;-76
2023/12/31 02:31:05;;;;;;;5.83;2.33;;;5.80;99.90;;;;;;4956579;28;20048;-76
2023/12/31 02:33:32;;;;;;;6.27;2.93;;;5.80;99.90;;;;;;4973455;28;20031;-76
2023/12/31 02:35:58;;;;;;;5.87;2.80;;;5.80;99.90;;;;;;4956516;28;20159;-75
2023/12/31 02:38:23;;;;;;;5.47;2.73;;;5.80;99.90;;;;;;4955914;28;20579;-76
2023/12/31 02:40:49;;;;;;;7.13;2.47;;;5.90;99.90;;;;;;4972751;28;20041;-76
2023/12/31 02:43:15;;;;;;;4.20;2.00;;;5.80;99.90;;;;;;4956186;28;20027;-76
2023/12/31 02:45:40;;;;;;;5.23;2.30;;;5.80;99.90;;;;;;4957011;28;20035;-76
2023/12/31 02:48:06;;;;;;;5.80;2.53;;;5.90;99.90;;;;;;4977565;28;20039;-75
2023/12/31 02:50:32;;;;;;;6.10;2.37;;;5.90;99.90;;;;;;4959757;28;20034;-76
2023/12/31 02:52:58;;;;;;;5.17;2.00;;;5.90;99.90;;;;;;4960288;28;20026;-76
2023/12/31 02:55:23;;;;;;;4.13;2.43;;;6.00;99.90;;;;;;4975726;28;20058;-75
2023/12/31 02:57:49;;;;;;;4.20;2.00;;;6.00;99.90;;;;;;4977126;28;20026;-75
2023/12/31 03:00:15;;;;;;;5.43;2.53;;;6.00;99.90;;;;;;4959646;28;20031;-76
2023/12/31 03:02:41;;;;;;;4.07;2.03;;;6.10;99.90;;;;;;4977297;28;20031;-75
2023/12/31 03:05:10;;;;;;;4.27;2.13;;;6.00;99.90;;;;;;4959889;28;20057;-75
2023/12/31 03:07:36;;;;;;;3.43;2.30;;;6.10;99.90;;;;;;4977321;28;20031;-76
2023/12/31 03:10:01;;;;;;;5.67;2.50;;;6.10;99.90;;;;;;4977083;28;20449;-76
2023/12/31 03:12:27;;;;;;;4.23;2.30;;;6.00;99.90;;;;;;4959332;28;20038;-75
2023/12/31 03:14:55;;;;;;;5.17;2.60;;;6.00;99.90;;;;;;4959709;28;20026;-76
2023/12/31 03:17:21;;;;;;;7.27;2.40;;;6.00;99.90;;;;;;4975374;28;20117;-76
2023/12/31 03:19:46;;;;;;;3.67;2.10;;;6.10;99.90;;;;;;4977075;28;20086;-75
2023/12/31 03:22:12;;;;;;;4.33;2.47;;;6.10;99.90;;;;;;4976659;28;20480;-76
2023/12/31 03:24:37;;;;;;;6.30;2.70;;;6.10;99.90;;;;;;4976748;28;20034;-75
2023/12/31 03:27:03;;;;;;;3.97;2.45;;;6.10;99.90;;;;;;4975467;28;20031;-76
2023/12/31 03:29:29;;;;;;;5.40;2.17;;;6.10;99.90;;;;;;4958467;28;20038;-76
2023/12/31 03:31:54;;;;;;;4.60;2.40;;;6.10;99.90;;;;;;4976654;28;20027;-76
2023/12/31 03:34:20;;;;;;;4.23;2.70;;;6.10;99.90;;;;;;4958927;28;20035;-75
2023/12/31 03:36:46;;;;;;;6.30;2.40;;;6.00;99.90;;;;;;4971976;28;20106;-75
2023/12/31 03:39:14;;;;;;;4.10;2.47;;;6.00;99.90;;;;;;4955701;28;20063;-77
2023/12/31 03:41:40;;;;;;;4.70;3.30;;;6.10;99.90;;;;;;4956302;28;20067;-76
2023/12/31 03:44:05;;;;;;;4.67;2.50;;;6.00;99.90;;;;;;4957448;28;20031;-75
2023/12/31 03:46:31;;;;;;;4.07;2.47;;;6.00;99.90;;;;;;4955582;28;20193;-76
2023/12/31 03:48:56;;;;;;;8.77;2.87;;;6.00;99.90;;;;;;4957107;28;20035;-75
2023/12/31 03:51:22;;;;;;;3.07;2.27;;;6.10;99.90;;;;;;4955351;29;20519;-75
2023/12/31 03:53:48;;;;;;;4.77;2.40;;;5.90;99.90;;;;;;4955882;29;20455;-75
2023/12/31 03:56:14;;;;;;;5.40;2.60;;;6.00;99.90;;;;;;4956533;28;20031;-76
2023/12/31 03:58:40;;;;;;;3.85;2.20;;;5.90;99.90;;;;;;4954779;28;20047;-75
2023/12/31 04:01:05;;;;;;;3.57;2.47;;;6.00;99.90;;;;;;4955830;28;20584;-75
2023/12/31 04:03:31;;;;;;;4.33;2.73;;;5.90;99.90;;;;;;4955118;29;20043;-75
2023/12/31 04:05:57;;;;;;;4.77;2.70;;;5.90;99.90;;;;;;4955628;28;20030;-75
2023/12/31 04:08:24;;;;;;;7.17;2.70;;;5.90;99.90;;;;;;4956494;28;20432;-75
2023/12/31 04:10:50;;;;;;;3.57;2.53;;;5.90;99.90;;;;;;4955485;28;20031;-75
2023/12/31 04:13:17;;;;;;;4.03;2.40;;;5.90;99.90;;;;;;4955043;28;20038;-76
2023/12/31 04:15:43;;;;;;;5.27;2.60;;;5.90;99.90;;;;;;4956581;28;20027;-75
2023/12/31 04:18:08;;;;;;;4.57;2.47;;;5.90;99.90;;;;;;4955307;28;20070;-76
2023/12/31 04:20:34;;;;;;;4.23;2.47;;;5.90;99.90;;;;;;4954826;29;20031;-76
2023/12/31 04:23:00;;;;;;;5.40;2.50;;;5.80;99.90;;;;;;4955418;28;20086;-75
2023/12/31 04:25:25;;;;;;;6.00;2.87;;;5.80;99.90;;;;;;4954725;28;20038;-76
2023/12/31 04:27:51;;;;;;;4.63;2.37;;;5.80;99.90;;;;;;4955102;28;20035;-75
2023/12/31 04:30:18;;;;;;;3.73;2.20;;;5.80;99.90;;;;;;4954588;29;20062;-76
2023/12/31 04:32:44;;;;;;;4.90;2.57;;;5.80;99.90;;;;;;4956284;28;20051;-76
2023/12/31 04:35:10;;;;;;;4.50;2.27;;;5.80;99.90;;;;;;4956240;28;20062;-75
2023/12/31 04:37:36;;;;;;;5.80;2.30;;;5.70;99.90;;;;;;4954187;28;20054;-75
2023/12/31 04:40:02;;;;;;;4.00;2.10;;;5.70;99.90;;;;;;4956046;28;20122;-75
2023/12/31 04:42:27;;;;;;;5.80;2.90;;;5.80;99.90;;;;;;4954367;28;20059;-75
2023/12/31 04:44:53;;;;;;;3.97;2.30;;;5.80;99.90;;;;;;4955003;29;20126;-75
2023/12/31 04:47:20;;;;;;;4.13;2.30;;;5.80;99.90;;;;;;4954306;29;20472;-75
2023/12/31 04:49:45;;;;;;;4.40;2.50;;;5.80;99.90;;;;;;4954742;28;20031;-75
2023/12/31 04:52:11;;;;;;;5.53;2.43;;;5.80;99.90;;;;;;4954718;28;20034;-75
2023/12/31 04:54:38;;;;;;;3.43;2.50;;;5.80;99.90;;;;;;4954351;28;20046;-75
2023/12/31 04:57:04;;;;;;;3.80;2.60;;;5.80;99.90;;;;;;4955846;28;20027;-75
2023/12/31 04:59:30;;;;;;;4.73;2.40;;;5.80;99.90;;;;;;4954990;28;20093;-76
2023/12/31 05:01:55;;;;;;;4.47;2.00;;;5.80;99.90;;;;;;4955803;28;20476;-75
2023/12/31 05:04:21;;;;;;;3.87;2.20;;;5.80;99.90;;;;;;4954124;28;20052;-76
2023/12/31 05:06:46;;;;;;;4.53;2.37;;;5.80;99.90;;;;;;4954675;29;20033;-75
2023/12/31 05:09:12;;;;;;;3.73;2.03;;;5.80;99.90;;;;;;4954422;28;20031;-75
2023/12/31 05:11:38;;;;;;;5.17;2.40;;;5.90;99.90;;;;;;4954124;28;20059;-75
2023/12/31 05:14:04;;;;;;;5.33;2.67;;;5.90;99.90;;;;;;4954384;28;20023;-75
2023/12/31 05:16:33;;;;;;;4.97;3.13;;;5.90;99.90;;;;;;4953763;28;20527;-75
2023/12/31 05:19:00;;;;;;;5.00;2.67;;;5.90;99.90;;;;;;4955397;28;20090;-75
2023/12/31 05:21:26;;;;;;;7.00;2.50;;;5.90;99.90;;;;;;4953773;28;20058;-75
2023/12/31 05:23:52;;;;;;;6.17;2.57;;;5.90;99.90;;;;;;4953846;29;20069;-75
2023/12/31 05:26:18;;;;;;;6.80;3.17;;;5.90;99.90;;;;;;4955139;28;20078;-92
2023/12/31 05:28:43;;;;;;;7.03;2.93;;;5.90;99.90;;;;;;4953843;28;20502;-76
2023/12/31 05:31:10;;;;;;;8.07;3.20;;;5.80;99.90;;;;;;4955324;28;20350;-75
2023/12/31 05:33:36;;;;;;;5.37;2.70;;;5.80;99.90;;;;;;4954736;28;20027;-75
2023/12/31 05:36:02;;;;;;;5.80;2.77;;;5.70;99.90;;;;;;4954014;28;20073;-75
2023/12/31 05:38:28;;;;;;;6.40;2.90;;;5.80;99.90;;;;;;4953112;28;20047;-75
2023/12/31 05:40:54;;;;;;;7.20;3.40;;;5.80;99.90;;;;;;4953961;28;20495;-74
2023/12/31 05:43:19;;;;;;;4.97;2.77;;;5.70;99.90;;;;;;4953704;29;20042;-78
2023/12/31 05:45:45;;;;;;;7.30;2.47;;;5.70;99.90;;;;;;4954089;28;20500;-75
2023/12/31 05:48:13;;;;;;;4.47;2.37;;;5.70;99.90;;;;;;4953938;28;20027;-75
2023/12/31 05:50:39;;;;;;;4.60;2.70;;;5.70;99.90;;;;;;4953535;28;20201;-75
2023/12/31 05:53:04;;;;;;;4.63;2.47;;;5.70;99.90;;;;;;4953532;28;20031;-75
2023/12/31 05:55:31;;;;;;;4.27;2.50;;;5.70;99.90;;;;;;4953309;29;20027;-76
2023/12/31 05:57:56;;;;;;;5.00;2.70;;;5.70;99.90;;;;;;4953632;28;20031;-75
2023/12/31 06:00:22;;;;;;;6.03;2.47;;;5.80;99.90;;;;;;4954516;28;20036;-76
2023/12/31 06:02:48;;;;;;;5.00;2.60;;;5.90;99.90;;;;;;4954909;28;20027;-76
2023/12/31 06:05:15;;;;;;;3.90;2.40;;;5.80;99.90;;;;;;4955005;28;20031;-76
2023/12/31 06:07:41;;;;;;;4.97;2.90;;;5.90;99.90;;;;;;4953160;28;20073;-75
2023/12/31 06:10:07;;;;;;;5.60;2.40;;;6.00;99.90;;;;;;4954924;28;20027;-75
2023/12/31 06:12:33;;;;;;;5.63;3.03;;;6.00;99.90;;;;;;4952927;28;20027;-75
2023/12/31 06:15:09;;;;;;;4.60;2.30;;;6.00;99.90;;;;;;4953525;28;20122;-75
2023/12/31 06:17:35;;;;;;;5.77;2.40;;;6.00;99.90;;;;;;4953181;28;20086;-76
2023/12/31 06:20:01;;;;;;;4.47;2.53;;;6.10;99.90;;;;;;4953138;28;20047;-76
2023/12/31 06:22:27;;;;;;;4.77;2.70;;;6.00;99.90;;;;;;4957746;28;20102;-75
2023/12/31 06:24:53;;;;;;;4.43;2.57;;;6.10;99.90;;;;;;4957416;28;20440;-75
2023/12/31 06:27:18;;;;;;;4.63;2.40;;;6.10;99.90;;;;;;4957454;28;20031;-75
2023/12/31 06:29:44;;;;;;;3.70;2.10;;;6.10;99.90;;;;;;4957758;28;20031;-75
2023/12/31 06:32:09;;;;;;;4.03;2.30;;;6.20;99.90;;;;;;4957458;28;20468;-75
2023/12/31 06:34:35;;;;;;;2.80;1.77;;;6.20;99.90;;;;;;4956863;28;20122;-75
2023/12/31 06:37:00;;;;;;;3.80;1.90;;;6.20;99.90;;;;;;4964856;28;20054;-75
2023/12/31 06:39:26;;;;;;;5.23;2.40;;;6.20;99.90;;;;;;4976820;28;20038;-75
2023/12/31 06:41:52;;;;;;;2.53;1.73;;;6.20;99.90;;;;;;4960313;28;20031;-75
2023/12/31 06:44:17;;;;;;;4.70;2.00;;;6.20;99.90;;;;;;4960325;28;20109;-75
2023/12/31 06:46:43;;;;;;;3.25;1.95;;;6.30;99.90;;;;;;4959723;28;20027;-75
2023/12/31 06:49:09;;;;;;;2.17;1.50;;;6.30;99.90;;;;;;4977509;28;20034;-75
2023/12/31 06:51:34;;;;;;;4.00;2.30;;;6.30;99.90;;;;;;4959689;28;20027;-75
2023/12/31 06:54:00;;;;;;;7.27;2.10;;;6.40;99.90;;;;;;4977396;28;20480;-75
2023/12/31 06:56:25;;;;;;;1.77;1.50;;;6.40;99.90;;;;;;4976985;28;20046;-76
2023/12/31 06:58:51;;;;;;;2.20;1.83;;;6.40;99.90;;;;;;4959877;28;20126;-75
2023/12/31 07:01:17;;;;;;;1.90;1.53;;;6.50;99.90;;;;;;4959950;28;20365;-75
2023/12/31 07:03:43;;;;;;;2.97;1.75;;;6.50;99.90;;;;;;4976840;28;20249;-76
2023/12/31 07:06:09;;;;;;;4.85;2.13;;;6.50;99.90;;;;;;4975917;28;20031;-75
2023/12/31 07:08:34;;;;;;;3.00;1.60;;;6.50;99.90;;;;;;4959454;28;20030;-76
2023/12/31 07:11:00;;;;;;;4.72;2.25;;;6.50;99.90;;;;;;4959971;28;20472;-75
2023/12/31 07:13:26;;;;;;;3.80;2.00;;;6.60;99.90;;;;;;4959329;28;20490;-76
2023/12/31 07:15:51;;;;;;;4.63;2.35;;;6.60;99.90;;;;;;4977196;28;20502;-75
2023/12/31 07:18:17;;;;;;;3.95;1.95;;;6.70;99.90;;;;;;4959913;28;20042;-75
2023/12/31 07:20:43;;;;;;;4.10;1.77;;;6.70;99.90;;;;;;4977072;28;20026;-75
2023/12/31 07:23:08;;;;;;;2.97;1.90;;;6.70;99.90;;;;;;4959649;28;20023;-75
2023/12/31 07:25:34;;;;;;;2.70;1.80;;;6.70;99.90;;;;;;4976225;28;20023;-75
2023/12/31 07:27:59;;;;;;;4.43;2.17;;;6.70;99.90;;;;;;4959588;28;20035;-75
2023/12/31 07:30:25;;;;;;;3.03;1.80;;;6.80;99.90;;;;;;4976535;28;20077;-82
2023/12/31 07:32:51;;;;;;;2.13;1.67;;;6.80;99.90;;;;;;4975604;28;20030;-75
2023/12/31 07:35:17;;;;;;;3.45;2.03;;;6.80;99.90;;;;;;4959348;28;20428;-75
2023/12/31 07:37:43;;;;;;;2.97;1.80;;;6.80;99.90;;;;;;4958486;28;20488;-75
2023/12/31 07:40:10;;;;;;;2.35;1.70;;;6.90;99.90;;;;;;4976634;28;20049;-75
2023/12/31 07:42:37;;;;;;;2.97;2.08;;;6.90;99.90;;;;;;4958702;28;20055;-75
2023/12/31 07:45:04;;;;;;;3.22;1.92;;;6.90;99.90;;;;;;4976654;28;20026;-75
2023/12/31 07:47:31;;;;;;;5.60;1.98;;;6.90;99.90;;;;;;4958819;28;20440;-75
2023/12/31 07:49:57;;;;;;;4.13;1.80;;;7.00;99.90;;;;;;4959587;28;20121;-75
2023/12/31 07:52:23;;;;;;;4.35;2.20;;;7.00;99.90;;;;;;4959105;28;20050;-75
2023/12/31 07:54:48;;;;;;;4.15;2.00;;;7.00;99.90;;;;;;4975947;28;20388;-74
2023/12/31 07:57:14;;;;;;;3.42;1.63;;;7.00;99.90;;;;;;4958997;28;20126;-75
2023/12/31 07:59:39;;;;;;;3.00;1.70;;;6.90;99.90;;;;;;4975924;28;20469;-74
2023/12/31 08:02:05;;;;;;;3.00;1.80;;;6.80;99.90;;;;;;4975045;28;20034;-75
2023/12/31 08:04:31;;;;;;;2.78;1.60;;;6.90;99.90;;;;;;4975809;28;20030;-75
2023/12/31 08:06:57;;;;;;;3.28;1.80;;;6.80;99.90;;;;;;4974935;28;20027;-75
2023/12/31 08:09:23;;;;;;;4.50;1.70;;;6.80;99.90;;;;;;4974739;28;20121;-75
2023/12/31 08:11:48;;;;;;;4.28;1.75;;;6.80;99.90;;;;;;4974038;28;20392;-75
2023/12/31 08:14:14;;;;;;;5.57;2.08;;;6.80;99.90;;;;;;4958318;28;20034;-75
2023/12/31 08:16:40;;;;;;;5.00;2.78;;;6.80;99.90;;;;;;4958012;28;20122;-75
2023/12/31 08:19:05;;;;;;;5.82;2.63;;;6.80;99.90;;;;;;4958211;28;20034;-75
2023/12/31 08:21:31;;;;;;;3.97;2.60;;;6.80;99.90;;;;;;4975247;28;20022;-75
2023/12/31 08:23:57;;;;;;;4.00;2.45;;;6.80;99.90;;;;;;4974334;28;20065;-74
2023/12/31 08:26:23;;;;;;;3.90;2.28;;;6.80;99.90;;;;;;4958304;28;20030;-75
2023/12/31 08:28:49;;;;;;;4.35;2.28;;;6.90;99.90;;;;;;4975200;28;20724;-74
2023/12/31 08:31:15;;;;;;;5.28;2.00;;;6.90;99.90;;;;;;4975606;28;20031;-74
2023/12/31 08:33:41;;;;;;;3.92;2.03;;;6.90;99.90;;;;;;4957771;28;20035;-74
2023/12/31 08:36:07;;;;;;;4.78;2.60;;;6.90;99.90;;;;;;4975449;28;20105;-75
2023/12/31 08:38:33;;;;;;;3.30;2.00;;;6.80;99.90;;;;;;4973183;28;20432;-76
2023/12/31 08:40:59;;;;;;;2.75;1.83;;;6.90;99.90;;;;;;4958010;28;20027;-75
2023/12/31 08:43:24;;;;;;;3.17;2.05;;;6.90;99.90;;;;;;4957549;28;20027;-75
2023/12/31 08:45:51;;;;;;;2.70;1.90;;;6.90;99.90;;;;;;4973531;28;20031;-75
2023/12/31 08:48:18;;;;;;;4.53;2.30;;;6.90;99.90;;;;;;4958009;28;20058;-76
2023/12/31 08:50:44;;;;;;;4.70;2.10;;;7.00;99.90;;;;;;4973529;28;20037;-76
2023/12/31 08:53:10;;;;;;;3.65;2.10;;;7.00;99.90;;;;;;4957883;28;20026;-76
2023/12/31 08:55:36;;;;;;;5.10;2.17;;;7.00;99.90;;;;;;4973427;28;20194;-76
2023/12/31 08:58:02;;;;;;;4.03;2.05;;;7.10;99.90;;;;;;4957808;28;20038;-76
2023/12/31 09:00:27;;;;;;;4.05;2.50;;;7.10;99.90;;;;;;4957746;28;20555;-76
2023/12/31 09:02:54;;;;;;;3.17;1.92;;;7.10;99.90;;;;;;4957256;28;20369;-76
2023/12/31 09:05:20;;;;;;;3.70;2.22;;;7.10;99.90;;;;;;4974928;28;20025;-76
2023/12/31 09:07:45;;;;;;;6.55;2.40;;;7.10;99.90;;;;;;4974126;28;20491;-76
2023/12/31 09:10:11;;;;;;;3.28;2.03;;;7.20;99.90;;;;;;4974865;28;20487;-76
2023/12/31 09:12:37;;;;;;;4.55;2.17;;;7.30;99.90;;;;;;4957155;28;20023;-76
2023/12/31 09:15:03;;;;;;;3.55;2.20;;;7.30;99.90;;;;;;4973645;28;20030;-76
2023/12/31 09:17:29;;;;;;;3.60;2.15;;;7.40;99.90;;;;;;4957349;28;20098;-76
2023/12/31 09:19:57;;;;;;;4.65;2.00;;;7.50;99.90;;;;;;4956916;28;20030;-76
2023/12/31 09:22:23;;;;;;;3.63;2.20;;;7.50;99.90;;;;;;4974672;28;20027;-76
2023/12/31 09:24:51;;;;;;;3.80;2.45;;;7.50;99.90;;;;;;4956860;28;20034;-76
2023/12/31 09:27:17;;;;;;;4.75;2.33;;;7.50;99.90;;;;;;4974497;28;20022;-76
2023/12/31 09:29:43;;;;;;;3.90;2.88;;;7.50;99.90;;;;;;4973725;28;20030;-77
2023/12/31 09:32:09;;;;;;;3.67;2.65;;;7.60;99.90;;;;;;4957370;28;20105;-76
2023/12/31 09:34:34;;;;;;;4.22;2.38;;;7.50;99.90;;;;;;4956626;28;20027;-74
2023/12/31 09:37:00;;;;;;;3.75;2.38;;;7.60;99.90;;;;;;4974126;28;20118;-74
2023/12/31 09:39:25;;;;;;;4.03;2.25;;;7.70;99.90;;;;;;4956966;28;20446;-75
2023/12/31 09:41:53;;;;;;;3.15;2.05;;;7.70;99.90;;;;;;4973665;28;20030;-75
2023/12/31 09:44:19;;;;;;;4.25;1.92;;;7.70;99.90;;;;;;4956971;28;20531;-74
2023/12/31 09:47:11;;;;;;;5.57;2.40;;;7.70;99.90;;;;;;4973835;28;20047;-76
2023/12/31 09:49:39;;;;;;;7.40;4.05;;;7.80;99.90;;;;;;4952757;28;20041;-74
2023/12/31 09:52:09;;;;;;;7.93;4.25;;;7.90;99.90;;;;;;4956787;28;20035;-74
2023/12/31 09:54:40;;;;;;;8.30;5.22;;;7.90;99.90;;;;;;4956467;28;20081;-76
2023/12/31 09:57:06;;;;;;;9.90;5.30;;;8.00;99.90;;;;;;4955921;28;20058;-75
2023/12/31 09:59:32;;;;;;;10.85;5.07;;;8.00;99.90;;;;;;4956835;28;20324;-75
2023/12/31 10:02:06;;;;;;;12.05;6.47;;;8.00;99.90;;;;;;4972488;28;20035;-74
2023/12/31 10:04:32;;;;;;;10.82;5.95;;;8.00;99.90;;;;;;4973853;28;20492;-74
2023/12/31 10:06:58;;;;;;;10.32;5.75;;;8.00;99.90;;;;;;4973593;28;20052;-75
2023/12/31 10:09:27;;;;;;;10.15;5.78;;;8.10;99.90;;;;;;4973976;28;20031;-74
2023/12/31 10:11:54;;;;;;;9.38;5.80;;;8.10;99.90;;;;;;4972311;28;20150;-75
2023/12/31 10:14:21;;;;;;;11.63;6.90;;;8.10;99.90;;;;;;4956679;28;20106;-74
2023/12/31 10:16:47;;;;;;;10.60;5.93;;;8.10;99.90;;;;;;4956299;28;20459;-74
2023/12/31 10:19:13;;;;;;;10.75;6.43;;;8.10;99.90;;;;;;4972593;28;20031;-74
2023/12/31 10:21:41;;;;;;;10.23;5.65;;;8.20;99.90;;;;;;4973546;28;20035;-75
2023/12/31 10:24:07;;;;;;;8.45;5.20;;;8.20;99.90;;;;;;4974052;28;20058;-74
2023/12/31 10:26:34;;;;;;;7.38;4.18;;;8.20;99.90;;;;;;4956292;28;20027;-74
2023/12/31 10:29:00;;;;;;;7.80;4.10;;;8.20;99.90;;;;;;4956285;28;20035;-74
2023/12/31 10:31:25;;;;;;;5.80;2.92;;;8.20;99.90;;;;;;4956690;28;20031;-75
2023/12/31 10:33:51;;;;;;;3.85;2.63;;;8.20;99.90;;;;;;4974220;28;20448;-74
2023/12/31 10:36:22;;;;;;;4.38;2.40;;;8.20;99.90;;;;;;4973825;28;20031;-75
2023/12/31 10:38:49;;;;;;;4.68;2.40;;;8.20;99.90;;;;;;4956587;28;20530;-75
2023/12/31 10:41:20;;;;;;;4.00;2.20;;;8.20;99.90;;;;;;4974145;28;20090;-75
2023/12/31 10:43:49;;;;;;;6.20;2.38;;;8.20;99.90;;;;;;4956523;28;20027;-76
2023/12/31 10:46:16;;;;;;;4.68;2.28;;;8.20;99.90;;;;;;4956776;28;20023;-75
2023/12/31 10:48:49;;;;;;;4.88;2.83;;;8.20;99.90;;;;;;4972197;28;20034;-76
2023/12/31 10:51:24;;;;;;;5.93;3.08;;;8.10;99.90;;;;;;4972820;28;20027;-75
2023/12/31 10:53:54;;;;;;;6.35;2.90;;;8.10;99.90;;;;;;4955977;28;20023;-75
2023/12/31 10:56:21;;;;;;;5.85;2.80;;;8.10;99.90;;;;;;4956313;28;20471;-75
2023/12/31 10:58:47;;;;;;;5.10;2.88;;;8.10;99.90;;;;;;4972929;28;20034;-75
2023/12/31 11:01:16;;;;;;;4.47;2.40;;;8.10;99.90;;;;;;4973960;28;20049;-75
2023/12/31 11:03:43;;;;;;;3.75;2.35;;;8.10;99.90;;;;;;4955843;28;20403;-75
2023/12/31 11:06:10;;;;;;;4.28;2.20;;;8.10;99.90;;;;;;4956075;28;20033;-75
2023/12/31 11:08:37;;;;;;;7.13;3.03;;;8.10;99.90;;;;;;4959508;28;20030;-75
2023/12/31 11:11:03;;;;;;;4.35;2.17;;;8.10;99.90;;;;;;4959971;28;20106;-75
2023/12/31 11:13:32;;;;;;;5.90;2.30;;;8.20;99.90;;;;;;4959839;28;20113;-74
2023/12/31 11:16:01;;;;;;;5.07;2.78;;;8.20;99.90;;;;;;4975580;28;20456;-75
2023/12/31 11:19:06;;;;;;;5.53;2.50;;;8.20;99.90;;;;;;4975687;28;20082;-76
2023/12/31 11:22:00;;;;;;;3.60;2.50;;;8.20;99.90;;;;;;4977569;28;20117;-76
2023/12/31 11:24:26;;;;;;;3.30;2.13;;;8.20;99.90;;;;;;4959533;28;20122;-76
2023/12/31 11:27:04;;;;;;;5.88;2.30;;;8.20;99.90;;;;;;4958905;28;20073;-76
2023/12/31 11:29:29;;;;;;;4.65;2.20;;;8.30;99.90;;;;;;4959241;28;20027;-75
2023/12/31 11:31:55;;;;;;;3.33;1.88;;;8.30;99.90;;;;;;4959120;28;20089;-76
2023/12/31 11:34:20;;;;;;;3.75;1.98;;;8.30;99.90;;;;;;4975491;28;20480;-75
2023/12/31 11:36:46;;;;;;;3.25;1.90;;;8.30;99.90;;;;;;4975989;28;20055;-75
2023/12/31 11:39:16;;;;;;;3.05;1.55;;;8.30;99.90;;;;;;4959592;28;20033;-76
2023/12/31 11:41:49;;;;;;;3.30;1.77;;;8.30;99.90;;;;;;4959310;28;20488;-76
2023/12/31 11:44:41;;;;;;;3.03;1.52;;;8.30;99.90;;;;;;4976474;28;20046;-75
2023/12/31 11:47:21;;;;;;;2.35;1.17;;;8.30;99.90;;;;;;4959244;28;20026;-75
2023/12/31 11:49:50;;;;;;;1.88;1.30;;;8.30;99.90;;;;;;4959103;28;20176;-76
2023/12/31 11:52:19;;;;;;;2.88;1.23;;;8.30;99.90;;;;;;4959280;28;20085;-75
2023/12/31 11:54:45;;;;;;;1.63;1.05;;;8.40;99.90;;;;;;4958861;28;20027;-75
2023/12/31 11:57:13;;;;;;;2.28;1.20;;;8.40;99.90;;;;;;4976419;28;20034;-75
2023/12/31 11:59:42;;;;;;;1.38;1.17;;;8.40;99.90;;;;;;4958992;28;20027;-76
2023/12/31 12:02:08;;;;;;;2.08;1.20;;;8.40;99.90;;;;;;4976476;28;20039;-75
2023/12/31 12:04:36;;;;;;;2.10;1.15;;;8.40;99.90;;;;;;4959171;28;20038;-75
2023/12/31 12:07:02;;;;;;;3.55;1.40;;;8.40;99.90;;;;;;4958972;28;20045;-75
2023/12/31 12:09:29;;;;;;;1.70;1.20;;;8.40;99.90;;;;;;4958859;28;20125;-76
2023/12/31 12:12:03;;;;;;;2.13;1.20;;;8.40;99.90;;;;;;4958351;28;20049;-76
2023/12/31 12:14:30;;;;;;;1.60;1.20;;;8.40;99.90;;;;;;4974915;28;20384;-75
2023/12/31 12:16:56;;;;;;;3.35;1.48;;;8.40;99.90;;;;;;4958349;28;20035;-76
2023/12/31 12:19:23;;;;;;;3.65;1.50;;;8.40;99.90;;;;;;4958150;28;20074;-76
2023/12/31 12:21:50;;;;;;;2.05;1.02;;;8.40;99.90;;;;;;4958303;28;20027;-76
2023/12/31 12:24:17;;;;;;;1.60;1.20;;;8.40;99.90;;;;;;4958874;28;20027;-75
2023/12/31 12:26:43;;;;;;;2.47;1.40;;;8.40;99.90;;;;;;4974207;28;20027;-90
2023/12/31 12:29:10;;;;;;;2.42;1.27;;;8.40;99.90;;;;;;4975903;28;20486;-75
2023/12/31 12:31:36;;;;;;;1.52;0.90;;;8.40;99.90;;;;;;4958396;28;20126;-75
2023/12/31 12:34:06;;;;;;;1.58;0.90;;;8.40;99.90;;;;;;4957629;28;20034;-75
2023/12/31 12:36:33;;;;;;;2.58;1.00;;;8.40;99.90;;;;;;4975267;28;20054;-75
2023/12/31 12:39:05;;;;;;;3.50;0.90;;;8.40;99.90;;;;;;4973856;28;20038;-75
2023/12/31 12:41:34;;;;;;;;;;;8.40;99.90;;;;;;4958725;28;20070;-75
2023/12/31 12:44:00;;;;;;;2.67;0.88;;;8.40;99.90;;;;;;4975282;28;19913;-76
2023/12/31 12:46:30;;;;;;;3.65;0.88;;;8.40;99.90;;;;;;4958025;28;20034;-75
2023/12/31 12:48:56;;;;;;;0.73;0.52;;;8.50;99.90;;;;;;4957623;28;20034;-75
2023/12/31 12:51:26;;;;;;;0.82;0.60;;;8.50;99.90;;;;;;4974421;28;20035;-75
2023/12/31 12:53:55;;;;;;;1.52;0.63;;;8.50;99.90;;;;;;4957353;28;20476;-76